Terminal Aerodrome Forecast
Issued by NWS Mt. Holly, NJ

Home | Current Version | Previous Version | Text Only | Print | Product List | Glossary On
Versions: 1 2 3 4 5 6 7 8 9 10 11 12 13 14 15
813
FTUS41 KPHI 081157 AAA
TAFABE
TAF AMD
KABE 081157Z 0812/0912 05008KT P6SM BKN150
      TEMPO 0812/0816 BKN025 OVC150
     FM081900 10005KT P6SM SCT020 OVC150
     FM090000 08007KT P6SM OVC020
     FM090400 08006KT 4SM -SN OVC009=

USA.gov is the U.S. government's official web portal to all federal, state and local government web resources and services.